Time;durP1;ratioP1;P1;durP2;ratioP2;P2;SDS_P1;SDS_P2;PMS_P1;PMS_P2;Temp;Humidity;BMP_temperature;BMP_pressure;BME280_temperature;BME280_humidity;BME280_pressure;Samples;Min_cycle;Max_cycle;Signal;HPM_P1;HPM_P2
2023/12/04 00:01:18;;;;;;;39.30;17.10;;;;;;;-8.41;93.71;101295.48;105435;1254;69881;-48
2023/12/04 00:03:46;;;;;;;38.90;16.90;;;;;;;-8.44;93.51;101292.58;105451;1254;74381;-47
2023/12/04 00:06:14;;;;;;;40.40;17.30;;;;;;;-8.46;93.87;101288.75;105460;1258;82004;-47
2023/12/04 00:08:43;;;;;;;43.90;19.30;;;;;;;-8.48;93.88;101286.61;105359;1254;71648;-46
2023/12/04 00:11:11;;;;;;;45.40;20.00;;;;;;;-8.50;93.79;101288.67;105369;1254;69983;-47
2023/12/04 00:13:39;;;;;;;52.80;21.80;;;;;;;-8.56;93.59;101290.09;105424;1257;69945;-46
2023/12/04 00:16:08;;;;;;;57.40;23.50;;;;;;;-8.63;93.27;101285.30;105289;1254;72565;-47
2023/12/04 00:18:36;;;;;;;48.50;20.10;;;;;;;-8.69;93.20;101283.63;105484;1257;81485;-46
2023/12/04 00:21:05;;;;;;;59.00;23.10;;;;;;;-8.74;93.25;101283.33;105465;1257;72010;-47
2023/12/04 00:23:33;;;;;;;51.80;21.50;;;;;;;-8.75;93.42;101282.44;105418;1257;69979;-47
2023/12/04 00:26:02;;;;;;;48.30;21.30;;;;;;;-8.77;93.53;101277.77;105430;1257;69903;-47
2023/12/04 00:28:31;;;;;;;50.30;20.00;;;;;;;-8.82;93.27;101280.36;105487;1258;71387;-47
2023/12/04 00:30:59;;;;;;;57.10;22.70;;;;;;;-8.89;93.19;101281.00;105459;1254;81727;-47
2023/12/04 00:33:28;;;;;;;75.00;30.40;;;;;;;-8.91;93.34;101283.25;105340;1257;71737;-47
2023/12/04 00:35:57;;;;;;;45.30;17.90;;;;;;;-8.90;93.82;101287.38;105428;1258;70647;-47
2023/12/04 00:38:25;;;;;;;38.70;16.70;;;;;;;-8.89;93.84;101283.85;105472;1255;69989;-47
2023/12/04 00:40:54;;;;;;;36.80;15.20;;;;;;;-8.93;93.47;101281.77;105420;1253;73106;-47
2023/12/04 00:43:22;;;;;;;46.50;18.10;;;;;;;-8.99;93.59;101283.67;105364;1258;81582;-47
2023/12/04 00:45:50;;;;;;;48.50;17.60;;;;;;;-9.01;93.45;101285.93;105371;1257;71387;-46
2023/12/04 00:48:18;;;;;;;50.90;19.40;;;;;;;-9.05;93.51;101286.73;105449;1255;70008;-46
2023/12/04 00:50:46;;;;;;;47.60;20.70;;;;;;;-9.07;93.44;101283.55;105383;1258;69976;-47
2023/12/04 00:53:15;;;;;;;52.40;20.80;;;;;;;-9.07;93.96;101289.15;105229;1254;73348;-46
2023/12/04 00:55:43;;;;;;;53.20;22.10;;;;;;;-9.05;93.90;101292.31;105339;1255;81867;-46
2023/12/04 00:58:12;;;;;;;58.20;24.30;;;;;;;-9.02;94.34;101289.09;105389;1258;72060;-47
2023/12/04 01:00:40;;;;;;;63.70;25.10;;;;;;;-9.00;94.39;101294.30;105297;1257;69921;-46
2023/12/04 01:03:09;;;;;;;65.20;26.90;;;;;;;-9.06;93.69;101297.02;105313;1254;69980;-46
2023/12/04 01:05:37;;;;;;;58.20;22.50;;;;;;;-9.08;93.77;101299.06;105363;1253;72827;-46
2023/12/04 01:08:05;;;;;;;62.70;23.70;;;;;;;-9.13;93.43;101301.00;105255;1254;81779;-46
2023/12/04 01:10:33;;;;;;;62.00;23.10;;;;;;;-9.15;93.49;101300.33;105289;1254;71073;-46
2023/12/04 01:13:01;;;;;;;56.00;23.10;;;;;;;-9.14;93.96;101294.29;105268;1257;69918;-47
2023/12/04 01:15:30;;;;;;;52.70;21.50;;;;;;;-9.15;93.77;101297.13;105322;1257;70073;-47
2023/12/04 01:18:00;;;;;;;51.30;20.60;;;;;;;-9.15;94.12;101295.98;105399;1254;72846;-46
2023/12/04 01:20:29;;;;;;;41.60;17.60;;;;;;;-9.08;94.67;101288.25;105380;1253;80790;-46
2023/12/04 01:22:58;;;;;;;35.20;15.50;;;;;;;-9.02;94.89;101287.06;105310;1257;73149;-46
2023/12/04 01:25:26;;;;;;;36.40;15.30;;;;;;;-9.00;94.51;101285.27;105284;1257;70280;-47
2023/12/04 01:27:54;;;;;;;33.20;14.30;;;;;;;-9.00;94.74;101283.80;105302;1254;70034;-47
2023/12/04 01:30:22;;;;;;;32.20;13.40;;;;;;;-9.00;94.42;101282.93;105272;1254;72928;-47
2023/12/04 01:32:50;;;;;;;29.10;12.70;;;;;;;-9.05;94.23;101288.90;105386;1259;81572;-47
2023/12/04 01:35:19;;;;;;;32.10;13.60;;;;;;;-9.07;94.01;101290.13;105501;1254;71555;-47
2023/12/04 01:37:47;;;;;;;28.80;12.60;;;;;;;-9.13;93.78;101292.18;105393;1254;70015;-47
2023/12/04 01:40:15;;;;;;;30.50;12.50;;;;;;;-9.20;93.34;101290.25;105468;1257;69996;-46
2023/12/04 01:42:43;;;;;;;36.20;15.00;;;;;;;-9.23;93.63;101291.82;105273;1254;74257;-47
2023/12/04 01:45:12;;;;;;;30.40;12.70;;;;;;;-9.16;94.35;101291.13;105361;1258;82594;-46
2023/12/04 01:47:40;;;;;;;31.10;13.80;;;;;;;-9.16;93.96;101297.59;105377;1256;72474;-47
2023/12/04 01:50:09;;;;;;;33.60;15.50;;;;;;;-9.20;93.82;101298.38;105377;1254;69912;-47
2023/12/04 01:52:37;;;;;;;32.80;14.60;;;;;;;-9.20;93.96;101299.21;105358;1258;70214;-47
2023/12/04 01:55:07;;;;;;;30.20;15.10;;;;;;;-9.21;93.79;101300.35;105496;1254;71932;-47
2023/12/04 01:57:35;;;;;;;32.80;15.10;;;;;;;-9.27;93.40;101296.45;105468;1259;81445;-47
2023/12/04 02:00:06;;;;;;;33.00;13.60;;;;;;;-9.31;93.43;101303.52;105434;1254;72080;-48
2023/12/04 02:02:44;;;;;;;33.50;14.00;;;;;;;-9.32;93.65;101307.52;105412;1258;69905;-47
2023/12/04 02:05:13;;;;;;;33.00;15.40;;;;;;;-9.32;93.79;101309.39;105434;1256;70007;-47
2023/12/04 02:07:41;;;;;;;34.60;14.10;;;;;;;-9.30;93.90;101311.02;105450;1254;71483;-47
2023/12/04 02:10:10;;;;;;;30.30;13.40;;;;;;;-9.32;93.64;101305.18;105335;1253;81527;-46
2023/12/04 02:12:38;;;;;;;36.30;14.00;;;;;;;-9.33;93.54;101304.90;105475;1255;72890;-47
2023/12/04 02:15:08;;;;;;;36.90;14.50;;;;;;;-9.40;93.16;101299.98;105281;1254;69931;-47
2023/12/04 02:17:37;;;;;;;34.00;14.50;;;;;;;-9.40;93.63;101294.20;105324;1258;69990;-47
2023/12/04 02:20:07;;;;;;;32.70;12.90;;;;;;;-9.38;93.70;101288.56;105442;1254;73868;-47
2023/12/04 02:22:35;;;;;;;37.40;14.40;;;;;;;-9.42;93.20;101286.32;105451;1257;80993;-47
2023/12/04 02:25:05;;;;;;;30.70;13.10;;;;;;;-9.47;93.05;101287.02;105296;1254;72021;-47
2023/12/04 02:27:40;;;;;;;31.10;12.60;;;;;;;-9.51;93.22;101286.30;105355;1257;69954;-47
2023/12/04 02:30:12;;;;;;;32.90;14.00;;;;;;;-9.52;93.11;101281.98;105405;1254;69992;-47
2023/12/04 02:32:44;;;;;;;27.50;12.10;;;;;;;-9.54;93.14;101280.38;105374;1258;72681;-46
2023/12/04 02:35:16;;;;;;;31.70;12.70;;;;;;;-9.56;93.13;101278.23;105293;1254;81274;-46
2023/12/04 02:37:44;;;;;;;27.80;12.10;;;;;;;-9.58;93.31;101275.58;105359;1253;72119;-46
2023/12/04 02:40:13;;;;;;;27.10;11.80;;;;;;;-9.61;93.08;101272.54;105386;1253;69893;-48
2023/12/04 02:42:41;;;;;;;31.50;14.50;;;;;;;-9.66;93.17;101271.39;105285;1253;70044;-47
2023/12/04 02:45:10;;;;;;;30.80;13.20;;;;;;;-9.62;93.49;101265.83;105397;1254;73036;-47
2023/12/04 02:47:38;;;;;;;32.00;14.10;;;;;;;-9.67;93.12;101267.46;105366;1257;81669;-47
2023/12/04 02:50:07;;;;;;;32.60;13.90;;;;;;;-9.72;93.03;101266.66;105399;1254;71077;-46
2023/12/04 02:52:35;;;;;;;34.70;15.00;;;;;;;-9.74;93.23;101261.42;105417;1254;69878;-46
2023/12/04 02:55:04;;;;;;;35.30;15.10;;;;;;;-9.73;93.29;101265.55;105374;1256;69946;-47
2023/12/04 02:57:32;;;;;;;36.00;16.90;;;;;;;-9.68;94.17;101269.43;105489;1256;73679;-46
2023/12/04 03:00:00;;;;;;;41.10;18.00;;;;;;;-9.57;94.77;101274.29;105388;1257;81513;-47
2023/12/04 03:02:29;;;;;;;43.10;19.30;;;;;;;-9.49;95.20;101276.27;105436;1258;73865;-46
2023/12/04 03:04:57;;;;;;;41.50;17.70;;;;;;;-9.43;95.31;101280.51;105516;1257;69970;-47
2023/12/04 03:07:26;;;;;;;36.60;17.20;;;;;;;-9.37;95.45;101279.63;105406;1253;69984;-47
2023/12/04 03:09:54;;;;;;;39.30;16.60;;;;;;;-9.35;95.16;101278.77;105480;1253;73206;-48
2023/12/04 03:12:22;;;;;;;41.20;19.10;;;;;;;-9.35;94.94;101278.23;105394;1253;82682;-47
2023/12/04 03:14:51;;;;;;;42.40;19.50;;;;;;;-9.35;95.12;101275.38;105335;1254;72330;-47
2023/12/04 03:17:19;;;;;;;37.50;16.70;;;;;;;-9.32;94.95;101279.75;105385;1253;69916;-46
2023/12/04 03:19:47;;;;;;;37.50;16.80;;;;;;;-9.35;94.50;101281.29;105368;1257;69964;-47
2023/12/04 03:22:16;;;;;;;35.80;14.80;;;;;;;-9.34;94.97;101282.33;105278;1253;72735;-46
2023/12/04 03:24:44;;;;;;;36.00;15.30;;;;;;;-9.33;94.57;101279.34;105465;1257;81643;-47
2023/12/04 03:27:12;;;;;;;32.20;14.00;;;;;;;-9.39;94.10;101280.19;105432;1258;72109;-46
2023/12/04 03:29:40;;;;;;;28.60;13.30;;;;;;;-9.44;94.04;101281.99;105280;1257;69982;-48
2023/12/04 03:32:08;;;;;;;28.60;14.10;;;;;;;-9.43;94.17;101277.96;105419;1258;69996;-47
2023/12/04 03:34:36;;;;;;;32.00;13.20;;;;;;;-9.49;93.53;101277.42;105335;1254;73071;-46
2023/12/04 03:37:05;;;;;;;28.50;12.60;;;;;;;-9.52;93.66;101276.23;105393;1256;82804;-47
2023/12/04 03:39:33;;;;;;;52.40;22.40;;;;;;;-9.57;93.34;101277.95;105408;1254;72327;-46
2023/12/04 03:42:01;;;;;;;29.80;14.60;;;;;;;-9.56;93.72;101276.02;105361;1258;69935;-47
2023/12/04 03:44:30;;;;;;;30.10;14.10;;;;;;;-9.62;93.09;101276.20;105423;1259;69995;-47
2023/12/04 03:46:58;;;;;;;26.80;12.50;;;;;;;-9.67;93.08;101277.42;105412;1253;73353;-46
2023/12/04 03:49:26;;;;;;;31.20;13.70;;;;;;;-9.73;92.80;101266.90;105369;1256;81090;-46
2023/12/04 03:51:55;;;;;;;34.50;15.80;;;;;;;-9.79;92.65;101267.59;105375;1254;71651;-46
2023/12/04 03:54:23;;;;;;;38.80;17.20;;;;;;;-9.80;92.95;101266.83;105399;1259;70015;-46
2023/12/04 03:56:52;;;;;;;34.10;15.40;;;;;;;-9.82;92.98;101269.95;105371;1253;69996;-47
2023/12/04 03:59:20;;;;;;;33.90;14.60;;;;;;;-9.84;92.86;101269.61;105464;1253;73314;-46
2023/12/04 04:01:48;;;;;;;32.30;15.00;;;;;;;-9.88;92.76;101268.38;105376;1254;83244;-46
2023/12/04 04:04:16;;;;;;;38.00;16.50;;;;;;;-9.91;92.88;101265.00;105365;1253;71733;-46
2023/12/04 04:06:45;;;;;;;33.30;16.40;;;;;;;-9.94;92.83;101263.85;105389;1258;70019;-46
2023/12/04 04:09:13;;;;;;;34.50;16.30;;;;;;;-9.95;92.97;101263.62;105435;1253;70040;-46
2023/12/04 04:11:41;;;;;;;35.40;15.70;;;;;;;-9.93;93.31;101267.93;105387;1255;72656;-46
2023/12/04 04:14:09;;;;;;;35.70;16.50;;;;;;;-9.93;93.18;101269.45;105419;1253;80406;-48
2023/12/04 04:16:37;;;;;;;35.90;16.30;;;;;;;-9.97;92.97;101270.57;105441;1253;71809;-46
2023/12/04 04:19:06;;;;;;;38.60;17.00;;;;;;;-9.97;93.23;101265.65;105400;1258;69995;-46
2023/12/04 04:21:34;;;;;;;33.20;15.90;;;;;;;-9.98;93.05;101264.11;105398;1259;70219;-47
2023/12/04 04:24:03;;;;;;;32.70;16.20;;;;;;;-10.03;92.76;101257.72;105439;1253;72652;-46
2023/12/04 04:26:31;;;;;;;36.90;15.80;;;;;;;-10.12;92.24;101257.88;105366;1254;81371;-46
2023/12/04 04:28:59;;;;;;;38.00;17.30;;;;;;;-10.19;92.31;101256.26;105376;1254;72400;-46
2023/12/04 04:31:27;;;;;;;40.60;18.80;;;;;;;-10.16;92.97;101253.71;105398;1255;69980;-47
2023/12/04 04:33:56;;;;;;;38.60;19.00;;;;;;;-10.11;93.15;101255.21;105333;1255;69999;-46
2023/12/04 04:36:24;;;;;;;40.70;17.90;;;;;;;-10.13;93.03;101256.92;105400;1254;73347;-46
2023/12/04 04:38:52;;;;;;;36.90;17.40;;;;;;;-10.14;93.11;101261.93;105451;1257;81998;-46
2023/12/04 04:41:20;;;;;;;52.90;22.30;;;;;;;-10.06;93.88;101263.95;105485;1254;71037;-47
2023/12/04 04:43:48;;;;;;;47.60;22.40;;;;;;;-9.88;94.94;101260.27;105365;1255;69895;-48
2023/12/04 04:46:16;;;;;;;49.00;21.60;;;;;;;-9.74;95.22;101258.40;105378;1257;69997;-46
2023/12/04 04:48:45;;;;;;;50.90;22.90;;;;;;;-9.65;95.52;101255.19;105417;1254;72827;-46
2023/12/04 04:51:14;;;;;;;52.70;22.00;;;;;;;-9.57;95.63;101249.41;105460;1258;81699;-46
2023/12/04 04:53:42;;;;;;;48.90;21.90;;;;;;;-9.48;95.84;101250.58;105413;1258;71707;-46
2023/12/04 04:56:10;;;;;;;48.70;22.70;;;;;;;-9.42;95.89;101245.02;105399;1259;69969;-46
2023/12/04 04:58:38;;;;;;;52.20;23.30;;;;;;;-9.36;95.82;101242.80;105456;1254;70342;-46
2023/12/04 05:01:08;;;;;;;49.50;23.30;;;;;;;-9.34;95.65;101238.18;105302;1253;73341;-47
2023/12/04 05:03:36;;;;;;;49.10;21.50;;;;;;;-9.32;95.54;101234.08;105452;1253;82445;-47
2023/12/04 05:06:05;;;;;;;54.80;23.80;;;;;;;-9.29;95.43;101238.14;105402;1257;72331;-46
2023/12/04 05:08:33;;;;;;;44.80;20.60;;;;;;;-9.27;95.36;101231.80;105399;1254;69982;-47
2023/12/04 05:11:02;;;;;;;51.10;22.10;;;;;;;-9.26;95.41;101229.49;105382;1257;70008;-47
2023/12/04 05:13:30;;;;;;;59.70;26.90;;;;;;;-9.26;95.22;101229.02;105426;1254;72823;-47
2023/12/04 05:15:58;;;;;;;58.90;27.70;;;;;;;-9.25;95.23;101231.25;105382;1257;82299;-46
2023/12/04 05:18:26;;;;;;;59.30;26.50;;;;;;;-9.24;95.18;101229.27;105445;1253;73102;-47
2023/12/04 05:20:54;;;;;;;58.50;26.80;;;;;;;-9.27;94.53;101229.46;105375;1257;70003;-46
2023/12/04 05:23:22;;;;;;;43.30;19.80;;;;;;;-9.37;93.73;101233.25;105389;1253;69919;-47
2023/12/04 05:25:51;;;;;;;47.80;19.80;;;;;;;-9.51;93.37;101232.65;105382;1254;73052;-45
2023/12/04 05:28:19;;;;;;;48.40;22.30;;;;;;;-9.52;93.89;101228.52;105438;1257;81119;-47
2023/12/04 05:30:47;;;;;;;44.70;20.40;;;;;;;-9.51;93.91;101227.11;105434;1258;72128;-48
2023/12/04 05:33:16;;;;;;;49.90;20.60;;;;;;;-9.53;93.83;101222.74;105415;1258;69925;-48
2023/12/04 05:35:44;;;;;;;43.70;19.30;;;;;;;-9.57;93.55;101222.67;105404;1254;70027;-46
2023/12/04 05:38:12;;;;;;;42.00;18.40;;;;;;;-9.62;93.28;101223.55;105390;1253;71404;-46
2023/12/04 05:40:40;;;;;;;41.80;18.30;;;;;;;-9.69;93.05;101225.04;105437;1256;82122;-47
2023/12/04 05:43:08;;;;;;;69.90;26.10;;;;;;;-9.73;92.85;101223.79;105398;1257;71977;-47
2023/12/04 05:45:37;;;;;;;127.00;43.20;;;;;;;-9.77;93.03;101224.09;105316;1257;70290;-46
2023/12/04 05:48:05;;;;;;;89.80;31.50;;;;;;;-9.78;92.94;101220.95;105450;1254;70629;-47
2023/12/04 05:50:34;;;;;;;160.30;51.20;;;;;;;-9.86;92.53;101220.16;105424;1257;73181;-47
2023/12/04 05:53:02;;;;;;;55.30;23.60;;;;;;;-9.93;92.59;101221.30;105358;1256;82369;-47
2023/12/04 05:55:30;;;;;;;70.40;26.00;;;;;;;-9.98;92.28;101218.92;105409;1253;71612;-46
2023/12/04 05:57:59;;;;;;;57.30;22.80;;;;;;;-10.03;92.42;101215.44;105432;1254;69952;-46
2023/12/04 06:00:27;;;;;;;48.20;21.70;;;;;;;-10.09;92.20;101218.30;105437;1259;70336;-46
2023/12/04 06:02:56;;;;;;;60.50;23.90;;;;;;;-10.13;92.61;101222.16;105483;1257;73658;-46
2023/12/04 06:05:25;;;;;;;52.60;21.30;;;;;;;-10.17;92.34;101217.19;105439;1257;81940;-47
2023/12/04 06:07:53;;;;;;;47.90;21.90;;;;;;;-10.21;92.27;101213.71;105380;1259;71604;-47
2023/12/04 06:10:21;;;;;;;45.70;20.90;;;;;;;-10.25;92.32;101216.19;105464;1254;70004;-47
2023/12/04 06:12:49;;;;;;;44.40;20.10;;;;;;;-10.28;92.42;101217.52;105371;1254;69919;-47
2023/12/04 06:15:18;;;;;;;44.20;19.50;;;;;;;-10.34;92.21;101220.44;105402;1253;73126;-46
2023/12/04 06:17:46;;;;;;;48.40;20.50;;;;;;;-10.38;92.16;101218.48;105422;1259;81953;-46
2023/12/04 06:20:14;;;;;;;45.50;19.10;;;;;;;-10.37;92.66;101214.64;105385;1254;73013;-47
2023/12/04 06:22:43;;;;;;;43.30;19.80;;;;;;;-10.32;92.85;101215.10;105365;1253;69972;-46
2023/12/04 06:25:12;;;;;;;78.90;27.10;;;;;;;-10.40;92.37;101213.97;105461;1256;69998;-46
2023/12/04 06:27:41;;;;;;;77.80;27.30;;;;;;;-10.40;92.71;101212.09;105462;1254;73550;-46
2023/12/04 06:30:09;;;;;;;79.90;27.70;;;;;;;-10.38;93.16;101208.48;105428;1253;81483;-46
2023/12/04 06:32:38;;;;;;;54.30;21.20;;;;;;;-10.24;93.88;101203.89;105482;1254;70441;-46
2023/12/04 06:35:07;;;;;;;62.30;23.50;;;;;;;-10.24;93.61;101202.22;105485;1259;70014;-46
2023/12/04 06:37:37;;;;;;;49.00;21.10;;;;;;;-10.19;93.76;101200.30;105443;1259;70189;-47
2023/12/04 06:40:08;;;;;;;44.40;17.60;;;;;;;-10.20;93.49;101202.28;105424;1254;72818;-46
2023/12/04 06:42:36;;;;;;;;;;;;;;;-10.11;94.17;101200.11;105352;1254;81980;-46
2023/12/04 06:45:05;;;;;;;53.80;22.30;;;;;;;-9.97;94.88;101198.40;105427;1254;71530;-46
2023/12/04 06:47:34;;;;;;;43.70;18.60;;;;;;;-9.87;94.97;101194.58;105487;1259;69914;-46
2023/12/04 06:50:03;;;;;;;44.50;18.30;;;;;;;-9.90;94.24;101194.75;105804;1254;70577;-46
2023/12/04 06:52:31;;;;;;;36.70;17.10;;;;;;;-9.94;93.64;101193.81;105826;1254;73093;-46
2023/12/04 06:54:59;;;;;;;38.30;17.60;;;;;;;-9.99;93.17;101194.56;105628;1257;81415;-47
2023/12/04 06:57:27;;;;;;;74.10;25.50;;;;;;;-10.02;93.23;101196.91;105601;1254;71317;-48
2023/12/04 06:59:56;;;;;;;53.60;19.70;;;;;;;-9.99;93.29;101197.77;105615;1254;70316;-47
2023/12/04 07:02:24;;;;;;;58.80;24.10;;;;;;;-10.01;93.23;101200.85;105835;1255;69797;-46
2023/12/04 07:04:52;;;;;;;55.40;24.20;;;;;;;-10.00;93.35;101207.33;105538;1254;72528;-46
2023/12/04 07:07:20;;;;;;;59.90;26.90;;;;;;;-9.99;93.20;101207.59;105530;1257;82436;-49
2023/12/04 07:09:48;;;;;;;54.60;24.20;;;;;;;-9.95;93.52;101206.80;105651;1254;72000;-46
2023/12/04 07:12:17;;;;;;;84.30;34.30;;;;;;;-9.90;93.74;101207.29;105750;1257;69916;-46
2023/12/04 07:14:45;;;;;;;92.60;38.50;;;;;;;-9.81;94.15;101204.06;105514;1254;69999;-47
2023/12/04 07:17:13;;;;;;;70.10;29.50;;;;;;;-9.73;94.48;101208.42;105625;1257;74511;-47
2023/12/04 07:19:42;;;;;;;66.40;29.00;;;;;;;-9.64;94.59;101212.79;105695;1257;81622;-46
2023/12/04 07:22:10;;;;;;;77.20;31.50;;;;;;;-9.57;94.54;101214.01;105525;1258;73580;-46
2023/12/04 07:24:38;;;;;;;91.80;35.80;;;;;;;-9.54;94.51;101213.17;105473;1254;69743;-46
2023/12/04 07:27:06;;;;;;;124.40;46.20;;;;;;;-9.50;94.57;101208.52;105560;1254;69987;-47
2023/12/04 07:29:34;;;;;;;115.10;42.70;;;;;;;-9.44;94.72;101207.50;105674;1254;72661;-46
2023/12/04 07:32:04;;;;;;;91.50;36.80;;;;;;;-9.38;94.66;101206.79;105655;1257;82101;-48
2023/12/04 07:34:32;;;;;;;80.00;34.30;;;;;;;-9.35;94.72;101207.81;105697;1253;70637;-46
2023/12/04 07:37:00;;;;;;;73.40;30.70;;;;;;;-9.30;94.79;101208.95;105478;1259;69934;-46
2023/12/04 07:39:29;;;;;;;72.30;29.60;;;;;;;-9.24;94.83;101211.15;105474;1254;70351;-47
2023/12/04 07:41:57;;;;;;;80.40;37.40;;;;;;;-9.20;94.87;101212.03;105654;1254;73690;-47
2023/12/04 07:44:40;;;;;;;81.60;36.30;;;;;;;-9.14;95.03;101204.08;105755;1257;81632;-47
2023/12/04 07:47:08;;;;;;;68.60;29.30;;;;;;;-9.08;94.87;101196.95;105612;1253;73049;-46
2023/12/04 07:49:37;;;;;;;45.80;20.90;;;;;;;-9.03;95.03;101190.63;105567;1254;69862;-47
2023/12/04 07:52:05;;;;;;;45.50;20.80;;;;;;;-8.98;95.20;101189.91;105737;1257;69928;-47
2023/12/04 07:54:34;;;;;;;51.70;21.60;;;;;;;-8.94;95.16;101187.58;105513;1254;73524;-47
2023/12/04 07:57:02;;;;;;;48.20;21.40;;;;;;;-8.89;95.22;101187.17;105497;1254;81435;-49
2023/12/04 07:59:30;;;;;;;52.40;22.90;;;;;;;-8.84;95.20;101185.91;105708;1254;71806;-47
2023/12/04 08:01:58;;;;;;;61.00;27.30;;;;;;;-8.79;95.27;101180.77;105459;1257;69900;-47
2023/12/04 08:04:27;;;;;;;53.90;25.10;;;;;;;-8.71;95.41;101174.73;105683;1254;70076;-48
2023/12/04 08:06:56;;;;;;;62.00;29.70;;;;;;;-8.64;95.40;101175.11;105703;1256;73375;-47
2023/12/04 08:09:24;;;;;;;58.20;26.80;;;;;;;-8.58;95.50;101174.77;105590;1254;83336;-46
2023/12/04 08:11:52;;;;;;;50.00;22.80;;;;;;;-8.51;95.51;101172.56;105486;1259;71840;-48
2023/12/04 08:14:24;;;;;;;52.40;24.90;;;;;;;-8.46;95.49;101174.19;105613;1254;69972;-48
2023/12/04 08:16:52;;;;;;;54.90;26.60;;;;;;;-8.41;95.53;101179.69;105455;1259;69878;-48
2023/12/04 08:19:20;;;;;;;62.50;26.90;;;;;;;-8.37;95.55;101178.73;105627;1254;74193;-48
2023/12/04 08:21:49;;;;;;;49.70;24.40;;;;;;;-8.28;95.80;101180.85;105622;1257;81770;-49
2023/12/04 08:24:18;;;;;;;52.30;24.50;;;;;;;-8.19;96.03;101176.57;105578;1254;72470;-48
2023/12/04 08:26:46;;;;;;;47.80;22.80;;;;;;;-8.12;95.99;101174.70;105478;1254;69987;-48
2023/12/04 08:29:14;;;;;;;50.70;22.90;;;;;;;-8.05;96.13;101173.52;105702;1254;69989;-50
2023/12/04 08:31:43;;;;;;;46.70;22.00;;;;;;;-7.96;96.29;101167.67;105478;1254;72259;-48
2023/12/04 08:34:11;;;;;;;49.40;23.60;;;;;;;-7.86;96.31;101165.98;105469;1254;83009;-48
2023/12/04 08:36:39;;;;;;;53.90;24.90;;;;;;;-7.75;96.56;101164.65;105548;1254;71887;-48
2023/12/04 08:39:13;;;;;;;104.10;53.10;;;;;;;-7.65;96.52;101164.30;105552;1254;69941;-48
2023/12/04 08:41:47;;;;;;;109.30;51.60;;;;;;;-7.54;96.67;101163.64;105529;1254;69980;-48
2023/12/04 08:44:28;;;;;;;95.20;46.80;;;;;;;-7.42;96.56;101159.63;105507;1258;74318;-51
2023/12/04 08:46:57;;;;;;;91.00;45.50;;;;;;;-7.28;96.85;101160.81;105508;1254;82052;-49
2023/12/04 08:49:26;;;;;;;79.50;36.80;;;;;;;-7.14;96.72;101158.22;105687;1255;71556;-48
2023/12/04 08:52:10;;;;;;;87.40;32.30;;;;;;;-7.00;96.91;101152.78;105558;1259;69922;-49
2023/12/04 08:54:41;;;;;;;88.70;33.20;;;;;;;-6.84;96.84;101151.63;105571;1257;69919;-48
2023/12/04 08:57:10;;;;;;;98.80;36.90;;;;;;;-6.70;96.68;101150.23;105504;1259;72890;-48
2023/12/04 08:59:38;;;;;;;84.30;32.10;;;;;;;-6.55;96.84;101148.48;105501;1259;81936;-48
2023/12/04 09:02:06;;;;;;;64.60;27.20;;;;;;;-6.38;96.95;101145.83;105457;1257;71991;-48
2023/12/04 09:04:36;;;;;;;67.10;29.10;;;;;;;-6.22;96.73;101147.89;105530;1254;70005;-48
2023/12/04 09:07:05;;;;;;;63.70;28.20;;;;;;;-6.08;96.52;101147.12;105613;1254;69972;-48
2023/12/04 09:09:36;;;;;;;74.10;35.20;;;;;;;-5.93;96.41;101143.48;105021;1259;73348;-49
2023/12/04 09:12:07;;;;;;;139.90;56.80;;;;;;;-5.80;96.50;101139.77;104993;1265;80427;-51
2023/12/04 09:14:35;;;;;;;129.80;52.10;;;;;;;-5.62;96.47;101136.39;105133;1260;71245;-50
2023/12/04 09:17:05;;;;;;;140.00;55.00;;;;;;;-5.40;96.75;101136.74;105004;1265;70111;-52
2023/12/04 09:19:33;;;;;;;145.40;58.50;;;;;;;-5.20;96.84;101129.52;105053;1259;70018;-48
2023/12/04 09:22:01;;;;;;;110.10;47.50;;;;;;;-5.01;96.74;101125.79;105122;1259;72852;-48
2023/12/04 09:24:44;;;;;;;75.60;37.10;;;;;;;-4.82;96.59;101119.52;104990;1263;82087;-50
2023/12/04 09:27:12;;;;;;;86.00;43.40;;;;;;;-4.69;96.28;101121.19;105210;1254;71920;-49
2023/12/04 09:29:41;;;;;;;84.80;40.10;;;;;;;-4.60;95.91;101121.52;105580;1259;69881;-49
2023/12/04 09:32:10;;;;;;;63.30;30.60;;;;;;;-4.51;95.76;101120.98;105590;1254;70321;-49
2023/12/04 09:34:38;;;;;;;62.70;30.00;;;;;;;-4.37;95.74;101117.05;105561;1254;74175;-49
2023/12/04 09:37:07;;;;;;;73.20;33.10;;;;;;;-4.28;95.44;101116.33;105572;1253;81470;-49
2023/12/04 09:39:39;;;;;;;64.40;29.00;;;;;;;-4.24;94.99;101118.67;105745;1255;71727;-48
2023/12/04 09:42:08;;;;;;;59.70;28.60;;;;;;;-4.22;94.79;101117.70;105570;1259;69940;-48
2023/12/04 09:44:37;;;;;;;63.40;30.30;;;;;;;-4.18;94.79;101119.55;105568;1254;69977;-49
2023/12/04 09:47:07;;;;;;;77.20;33.10;;;;;;;-4.12;94.79;101115.48;105506;1259;73969;-48
2023/12/04 09:49:35;;;;;;;59.00;29.00;;;;;;;-4.06;94.79;101112.64;105517;1254;82025;-47
2023/12/04 09:52:04;;;;;;;59.40;29.70;;;;;;;-4.02;94.57;101106.27;105623;1258;71832;-49
2023/12/04 09:54:34;;;;;;;60.70;27.90;;;;;;;-4.01;94.43;101108.90;105641;1259;69888;-52
2023/12/04 09:57:03;;;;;;;70.40;33.10;;;;;;;-4.00;94.21;101106.86;105517;1259;70068;-47
2023/12/04 09:59:32;;;;;;;70.50;34.30;;;;;;;-3.95;94.62;101097.80;105581;1257;72335;-47
2023/12/04 10:02:01;;;;;;;89.30;41.80;;;;;;;-3.86;94.68;101089.39;105618;1259;81353;-47
2023/12/04 10:04:29;;;;;;;67.20;32.50;;;;;;;-3.76;94.70;101089.56;105503;1254;71613;-48
2023/12/04 10:06:58;;;;;;;69.00;32.80;;;;;;;-3.67;94.52;101087.09;105570;1259;70005;-47
2023/12/04 10:09:26;;;;;;;87.90;41.20;;;;;;;-3.62;94.15;101077.70;105552;1259;69993;-49
2023/12/04 10:11:58;;;;;;;92.30;41.90;;;;;;;-3.55;94.28;101076.35;105520;1254;72745;-52
2023/12/04 10:14:26;;;;;;;62.20;31.10;;;;;;;-3.44;94.26;101073.31;105660;1258;81321;-51
2023/12/04 10:16:55;;;;;;;87.70;33.60;;;;;;;-3.35;93.98;101070.98;105540;1254;72236;-48
2023/12/04 10:19:27;;;;;;;62.20;29.70;;;;;;;-3.24;94.14;101069.27;105505;1259;70014;-46
2023/12/04 10:22:00;;;;;;;79.20;35.50;;;;;;;-3.08;94.02;101068.21;105471;1254;69944;-46
2023/12/04 10:24:35;;;;;;;66.10;32.20;;;;;;;-2.94;93.88;101070.69;105680;1257;74087;-46
2023/12/04 10:27:08;;;;;;;64.80;30.00;;;;;;;-2.80;93.89;101072.09;105547;1259;81778;-46
2023/12/04 10:29:43;;;;;;;79.80;31.70;;;;;;;-2.73;93.71;101072.12;105592;1253;70592;-47
2023/12/04 10:32:11;;;;;;;63.90;27.80;;;;;;;-2.64;93.62;101065.34;105693;1255;70065;-46
2023/12/04 10:34:43;;;;;;;61.10;28.70;;;;;;;-2.61;93.48;101061.33;105574;1260;70575;-48
2023/12/04 10:37:11;;;;;;;64.00;29.40;;;;;;;-2.59;93.26;101058.64;105635;1254;73477;-47
2023/12/04 10:39:48;;;;;;;55.00;29.20;;;;;;;-2.55;93.16;101053.95;105562;1259;81367;-49
2023/12/04 10:42:32;;;;;;;65.00;30.50;;;;;;;-2.45;93.25;101053.86;105933;1257;70720;-46
2023/12/04 10:45:00;;;;;;;61.60;29.00;;;;;;;-2.46;92.92;101054.55;105491;1259;69935;-50
2023/12/04 10:47:33;;;;;;;53.80;28.30;;;;;;;-2.42;92.97;101056.17;105597;1257;69928;-47
2023/12/04 10:50:02;;;;;;;56.40;28.10;;;;;;;-2.38;92.87;101048.75;105695;1257;72745;-49
2023/12/04 10:52:31;;;;;;;63.90;30.70;;;;;;;-2.34;92.83;101047.16;105483;1254;82148;-47
2023/12/04 10:55:01;;;;;;;77.50;33.90;;;;;;;-2.28;92.77;101046.78;105394;1254;170882;-47
2023/12/04 10:57:38;;;;;;;65.50;30.60;;;;;;;-2.16;93.01;101046.21;105626;1259;69922;-48
2023/12/04 11:00:08;;;;;;;58.60;29.00;;;;;;;-2.07;93.07;101046.27;105529;1254;70259;-49
2023/12/04 11:02:40;;;;;;;63.00;31.40;;;;;;;-2.00;92.67;101043.02;105524;1259;74331;-48
2023/12/04 11:05:13;;;;;;;161.90;61.10;;;;;;;-1.86;92.85;101031.20;105465;1259;81599;-50
2023/12/04 11:07:47;;;;;;;152.60;65.20;;;;;;;-1.77;92.49;101028.16;105462;1254;72380;-49